sensor_id;sensor_type;location;lat;lon;timestamp;P1;P2;P0
31163;PMS5003;17796;49.296;-117.656;2023-09-18T00:07:01;9;9;
31163;PMS5003;17796;49.296;-117.656;2023-09-18T00:22:05;12;12;
31163;PMS5003;17796;49.296;-117.656;2023-09-18T00:37:09;13;12;
31163;PMS5003;17796;49.296;-117.656;2023-09-18T00:52:13;13;11;
31163;PMS5003;17796;49.296;-117.656;2023-09-18T01:07:18;15;12;
31163;PMS5003;17796;49.296;-117.656;2023-09-18T01:22:22;19;13;
31163;PMS5003;17796;49.296;-117.656;2023-09-18T01:37:28;13;11;
31163;PMS5003;17796;49.296;-117.656;2023-09-18T01:52:32;10;10;
31163;PMS5003;17796;49.296;-117.656;2023-09-18T02:07:35;13;12;
31163;PMS5003;17796;49.296;-117.656;2023-09-18T02:22:40;11;11;
31163;PMS5003;17796;49.296;-117.656;2023-09-18T02:37:44;13;11;
31163;PMS5003;17796;49.296;-117.656;2023-09-18T02:52:48;10;10;
31163;PMS5003;17796;49.296;-117.656;2023-09-18T03:07:52;16;13;
31163;PMS5003;17796;49.296;-117.656;2023-09-18T03:22:58;12;11;
31163;PMS5003;17796;49.296;-117.656;2023-09-18T03:38:04;12;11;
31163;PMS5003;17796;49.296;-117.656;2023-09-18T03:53:09;13;11;
31163;PMS5003;17796;49.296;-117.656;2023-09-18T04:08:14;16;15;
31163;PMS5003;17796;49.296;-117.656;2023-09-18T04:23:21;12;12;
31163;PMS5003;17796;49.296;-117.656;2023-09-18T04:38:26;16;12;
31163;PMS5003;17796;49.296;-117.656;2023-09-18T04:53:32;15;13;
31163;PMS5003;17796;49.296;-117.656;2023-09-18T05:08:38;12;10;
31163;PMS5003;17796;49.296;-117.656;2023-09-18T05:23:42;13;13;
31163;PMS5003;17796;49.296;-117.656;2023-09-18T05:38:46;15;13;
31163;PMS5003;17796;49.296;-117.656;2023-09-18T05:53:50;15;11;
31163;PMS5003;17796;49.296;-117.656;2023-09-18T06:08:54;13;13;
31163;PMS5003;17796;49.296;-117.656;2023-09-18T06:24:00;31;30;
31163;PMS5003;17796;49.296;-117.656;2023-09-18T06:39:04;10;10;
31163;PMS5003;17796;49.296;-117.656;2023-09-18T06:54:08;11;10;
31163;PMS5003;17796;49.296;-117.656;2023-09-18T07:09:12;8;8;
31163;PMS5003;17796;49.296;-117.656;2023-09-18T07:24:16;11;11;
31163;PMS5003;17796;49.296;-117.656;2023-09-18T07:39:20;9;9;
31163;PMS5003;17796;49.296;-117.656;2023-09-18T07:54:26;9;9;
31163;PMS5003;17796;49.296;-117.656;2023-09-18T08:09:31;14;13;
31163;PMS5003;17796;49.296;-117.656;2023-09-18T08:24:36;12;11;
31163;PMS5003;17796;49.296;-117.656;2023-09-18T08:39:40;13;12;
31163;PMS5003;17796;49.296;-117.656;2023-09-18T08:54:44;14;14;
31163;PMS5003;17796;49.296;-117.656;2023-09-18T09:09:49;18;17;
31163;PMS5003;17796;49.296;-117.656;2023-09-18T09:24:52;18;15;
31163;PMS5003;17796;49.296;-117.656;2023-09-18T09:39:57;18;17;
31163;PMS5003;17796;49.296;-117.656;2023-09-18T09:55:19;14;13;
31163;PMS5003;17796;49.296;-117.656;2023-09-18T10:10:24;17;17;
31163;PMS5003;17796;49.296;-117.656;2023-09-18T10:25:31;13;13;
31163;PMS5003;17796;49.296;-117.656;2023-09-18T10:40:37;19;17;
31163;PMS5003;17796;49.296;-117.656;2023-09-18T10:55:42;16;14;
31163;PMS5003;17796;49.296;-117.656;2023-09-18T11:10:58;18;18;
31163;PMS5003;17796;49.296;-117.656;2023-09-18T11:26:05;17;17;
31163;PMS5003;17796;49.296;-117.656;2023-09-18T11:41:27;18;18;
31163;PMS5003;17796;49.296;-117.656;2023-09-18T11:56:31;19;19;
31163;PMS5003;17796;49.296;-117.656;2023-09-18T12:11:36;21;21;
31163;PMS5003;17796;49.296;-117.656;2023-09-18T12:26:40;26;23;
31163;PMS5003;17796;49.296;-117.656;2023-09-18T12:41:45;20;20;
31163;PMS5003;17796;49.296;-117.656;2023-09-18T12:56:49;25;23;
31163;PMS5003;17796;49.296;-117.656;2023-09-18T13:11:56;30;24;
31163;PMS5003;17796;49.296;-117.656;2023-09-18T13:27:01;46;44;
31163;PMS5003;17796;49.296;-117.656;2023-09-18T13:42:05;36;36;
31163;PMS5003;17796;49.296;-117.656;2023-09-18T13:57:09;22;19;
31163;PMS5003;17796;49.296;-117.656;2023-09-18T14:12:13;21;21;
31163;PMS5003;17796;49.296;-117.656;2023-09-18T14:27:17;22;18;
31163;PMS5003;17796;49.296;-117.656;2023-09-18T14:42:21;20;20;
31163;PMS5003;17796;49.296;-117.656;2023-09-18T14:57:25;23;22;
31163;PMS5003;17796;49.296;-117.656;2023-09-18T15:12:30;23;20;
31163;PMS5003;17796;49.296;-117.656;2023-09-18T15:27:34;23;22;
31163;PMS5003;17796;49.296;-117.656;2023-09-18T15:42:38;16;16;
31163;PMS5003;17796;49.296;-117.656;2023-09-18T15:57:42;19;18;
31163;PMS5003;17796;49.296;-117.656;2023-09-18T16:12:46;23;21;
31163;PMS5003;17796;49.296;-117.656;2023-09-18T16:27:50;19;16;
31163;PMS5003;17796;49.296;-117.656;2023-09-18T16:42:54;17;17;
31163;PMS5003;17796;49.296;-117.656;2023-09-18T16:57:59;18;18;
31163;PMS5003;17796;49.296;-117.656;2023-09-18T17:13:03;19;19;
31163;PMS5003;17796;49.296;-117.656;2023-09-18T17:28:07;15;15;
31163;PMS5003;17796;49.296;-117.656;2023-09-18T17:43:11;18;14;
31163;PMS5003;17796;49.296;-117.656;2023-09-18T17:58:15;22;19;
31163;PMS5003;17796;49.296;-117.656;2023-09-18T18:13:18;17;17;
31163;PMS5003;17796;49.296;-117.656;2023-09-18T18:28:22;20;17;
31163;PMS5003;17796;49.296;-117.656;2023-09-18T18:43:26;18;18;
31163;PMS5003;17796;49.296;-117.656;2023-09-18T18:58:30;25;21;
31163;PMS5003;17796;49.296;-117.656;2023-09-18T19:13:34;17;17;
31163;PMS5003;17796;49.296;-117.656;2023-09-18T19:28:39;25;21;
31163;PMS5003;17796;49.296;-117.656;2023-09-18T19:43:45;17;15;
31163;PMS5003;17796;49.296;-117.656;2023-09-18T19:58:48;17;16;
31163;PMS5003;17796;49.296;-117.656;2023-09-18T20:13:52;17;15;
31163;PMS5003;17796;49.296;-117.656;2023-09-18T20:28:56;19;18;
31163;PMS5003;17796;49.296;-117.656;2023-09-18T20:44:00;23;20;
31163;PMS5003;17796;49.296;-117.656;2023-09-18T20:59:05;22;19;
31163;PMS5003;17796;49.296;-117.656;2023-09-18T21:14:09;17;16;
31163;PMS5003;17796;49.296;-117.656;2023-09-18T21:29:12;23;20;
31163;PMS5003;17796;49.296;-117.656;2023-09-18T21:44:16;18;17;
31163;PMS5003;17796;49.296;-117.656;2023-09-18T21:59:20;18;17;
31163;PMS5003;17796;49.296;-117.656;2023-09-18T22:14:24;18;16;
31163;PMS5003;17796;49.296;-117.656;2023-09-18T22:29:28;17;16;
31163;PMS5003;17796;49.296;-117.656;2023-09-18T23:08:30;17;17;
31163;PMS5003;17796;49.296;-117.656;2023-09-18T23:23:34;17;16;
31163;PMS5003;17796;49.296;-117.656;2023-09-18T23:38:37;15;13;
31163;PMS5003;17796;49.296;-117.656;2023-09-18T23:53:41;20;16;
